sensor_id;sensor_type;location;lat;lon;timestamp;P1;durP1;ratioP1;P2;durP2;ratioP2
2576;SDS011;1298;51.252;6.802;2022-09-09T01:38:14;0.00;;;0.00;;
2576;SDS011;1298;51.252;6.802;2022-09-09T03:43:04;19.85;;;18.85;;
2576;SDS011;1298;51.252;6.802;2022-09-09T03:45:50;0.30;;;0.30;;
2576;SDS011;1298;51.252;6.802;2022-09-09T03:54:06;0.10;;;0.10;;
2576;SDS011;1298;51.252;6.802;2022-09-09T06:29:12;0.60;;;0.60;;
2576;SDS011;1298;51.252;6.802;2022-09-09T06:31:57;0.38;;;0.38;;
2576;SDS011;1298;51.252;6.802;2022-09-09T06:34:43;0.30;;;0.30;;
2576;SDS011;1298;51.252;6.802;2022-09-09T06:37:30;0.33;;;0.33;;
2576;SDS011;1298;51.252;6.802;2022-09-09T06:40:16;0.30;;;0.30;;
2576;SDS011;1298;51.252;6.802;2022-09-09T06:43:03;0.60;;;0.60;;
2576;SDS011;1298;51.252;6.802;2022-09-09T06:45:58;0.70;;;0.70;;
2576;SDS011;1298;51.252;6.802;2022-09-09T06:48:45;0.85;;;0.85;;
2576;SDS011;1298;51.252;6.802;2022-09-09T06:51:31;0.38;;;0.38;;
2576;SDS011;1298;51.252;6.802;2022-09-09T06:54:19;0.75;;;0.75;;
2576;SDS011;1298;51.252;6.802;2022-09-09T06:57:05;0.40;;;0.40;;
2576;SDS011;1298;51.252;6.802;2022-09-09T06:59:53;0.25;;;0.25;;
2576;SDS011;1298;51.252;6.802;2022-09-09T07:02:38;0.13;;;0.13;;
2576;SDS011;1298;51.252;6.802;2022-09-09T07:05:25;0.32;;;0.32;;
2576;SDS011;1298;51.252;6.802;2022-09-09T07:08:10;1.10;;;1.10;;
2576;SDS011;1298;51.252;6.802;2022-09-09T07:13:46;0.60;;;0.60;;
2576;SDS011;1298;51.252;6.802;2022-09-09T07:19:20;0.77;;;0.77;;
2576;SDS011;1298;51.252;6.802;2022-09-09T07:22:06;0.45;;;0.45;;
2576;SDS011;1298;51.252;6.802;2022-09-09T07:24:52;0.50;;;0.50;;
2576;SDS011;1298;51.252;6.802;2022-09-09T07:30:24;1.08;;;1.08;;
2576;SDS011;1298;51.252;6.802;2022-09-09T07:36:01;1.33;;;1.33;;
2576;SDS011;1298;51.252;6.802;2022-09-09T07:41:36;0.80;;;0.80;;
2576;SDS011;1298;51.252;6.802;2022-09-09T07:47:11;0.90;;;0.90;;
2576;SDS011;1298;51.252;6.802;2022-09-09T07:52:43;1.10;;;1.10;;
2576;SDS011;1298;51.252;6.802;2022-09-09T07:58:14;1.80;;;1.77;;
2576;SDS011;1298;51.252;6.802;2022-09-09T08:06:33;0.47;;;0.47;;
2576;SDS011;1298;51.252;6.802;2022-09-09T08:12:05;0.82;;;0.82;;
2576;SDS011;1298;51.252;6.802;2022-09-09T08:14:52;0.00;;;0.00;;
2576;SDS011;1298;51.252;6.802;2022-09-09T08:20:23;1.40;;;1.40;;
2576;SDS011;1298;51.252;6.802;2022-09-09T08:26:02;0.30;;;0.30;;
2576;SDS011;1298;51.252;6.802;2022-09-09T08:39:53;0.60;;;0.60;;
2576;SDS011;1298;51.252;6.802;2022-09-09T08:45:29;0.45;;;0.45;;
2576;SDS011;1298;51.252;6.802;2022-09-09T08:56:50;1.20;;;1.20;;
2576;SDS011;1298;51.252;6.802;2022-09-09T09:10:53;0.40;;;0.40;;
2576;SDS011;1298;51.252;6.802;2022-09-09T10:15:36;0.00;;;0.00;;
2576;SDS011;1298;51.252;6.802;2022-09-09T10:21:44;0.20;;;0.20;;
2576;SDS011;1298;51.252;6.802;2022-09-09T10:27:44;1.10;;;1.10;;
2576;SDS011;1298;51.252;6.802;2022-09-09T10:30:40;0.00;;;0.00;;
2576;SDS011;1298;51.252;6.802;2022-09-09T10:39:16;0.25;;;0.25;;
2576;SDS011;1298;51.252;6.802;2022-09-09T10:48:04;0.00;;;0.00;;
2576;SDS011;1298;51.252;6.802;2022-09-09T10:51:02;0.00;;;0.00;;
2576;SDS011;1298;51.252;6.802;2022-09-09T10:54:05;0.00;;;0.00;;
2576;SDS011;1298;51.252;6.802;2022-09-09T10:57:05;0.25;;;0.25;;
2576;SDS011;1298;51.252;6.802;2022-09-09T11:00:14;0.73;;;0.73;;
2576;SDS011;1298;51.252;6.802;2022-09-09T11:03:02;0.25;;;0.25;;
2576;SDS011;1298;51.252;6.802;2022-09-09T11:05:51;0.30;;;0.30;;
2576;SDS011;1298;51.252;6.802;2022-09-09T11:08:40;0.23;;;0.23;;
2576;SDS011;1298;51.252;6.802;2022-09-09T11:11:29;0.10;;;0.10;;
2576;SDS011;1298;51.252;6.802;2022-09-09T11:14:19;1.30;;;1.30;;
2576;SDS011;1298;51.252;6.802;2022-09-09T11:25:32;0.20;;;0.20;;
2576;SDS011;1298;51.252;6.802;2022-09-09T11:51:30;1.00;;;1.00;;
2576;SDS011;1298;51.252;6.802;2022-09-09T12:14:18;0.20;;;0.20;;
2576;SDS011;1298;51.252;6.802;2022-09-09T12:31:33;0.00;;;0.00;;
2576;SDS011;1298;51.252;6.802;2022-09-09T12:37:19;0.30;;;0.30;;
2576;SDS011;1298;51.252;6.802;2022-09-09T12:43:15;0.30;;;0.30;;
2576;SDS011;1298;51.252;6.802;2022-09-09T12:48:53;0.03;;;0.03;;
2576;SDS011;1298;51.252;6.802;2022-09-09T12:54:29;0.25;;;0.25;;
2576;SDS011;1298;51.252;6.802;2022-09-09T13:00:14;0.20;;;0.20;;
2576;SDS011;1298;51.252;6.802;2022-09-09T13:05:48;0.20;;;0.20;;
2576;SDS011;1298;51.252;6.802;2022-09-09T13:08:34;0.10;;;0.10;;
2576;SDS011;1298;51.252;6.802;2022-09-09T13:14:12;0.20;;;0.20;;
2576;SDS011;1298;51.252;6.802;2022-09-09T13:22:37;0.60;;;0.60;;
2576;SDS011;1298;51.252;6.802;2022-09-09T13:28:20;0.20;;;0.20;;
2576;SDS011;1298;51.252;6.802;2022-09-09T13:31:19;0.00;;;0.00;;
2576;SDS011;1298;51.252;6.802;2022-09-09T13:34:10;0.00;;;0.00;;
2576;SDS011;1298;51.252;6.802;2022-09-09T13:36:59;0.00;;;0.00;;
2576;SDS011;1298;51.252;6.802;2022-09-09T13:39:50;0.00;;;0.00;;
2576;SDS011;1298;51.252;6.802;2022-09-09T13:42:39;0.00;;;0.00;;
2576;SDS011;1298;51.252;6.802;2022-09-09T13:45:28;0.00;;;0.00;;
2576;SDS011;1298;51.252;6.802;2022-09-09T13:48:17;0.00;;;0.00;;
2576;SDS011;1298;51.252;6.802;2022-09-09T13:51:04;0.08;;;0.08;;
2576;SDS011;1298;51.252;6.802;2022-09-09T13:53:49;0.00;;;0.00;;
2576;SDS011;1298;51.252;6.802;2022-09-09T13:56:36;0.00;;;0.00;;
2576;SDS011;1298;51.252;6.802;2022-09-09T13:59:22;0.10;;;0.10;;
2576;SDS011;1298;51.252;6.802;2022-09-09T14:02:10;0.00;;;0.00;;
2576;SDS011;1298;51.252;6.802;2022-09-09T14:04:56;0.40;;;0.40;;
2576;SDS011;1298;51.252;6.802;2022-09-09T14:07:42;0.10;;;0.10;;
2576;SDS011;1298;51.252;6.802;2022-09-09T14:10:28;0.00;;;0.00;;
2576;SDS011;1298;51.252;6.802;2022-09-09T14:18:46;0.10;;;0.10;;
2576;SDS011;1298;51.252;6.802;2022-09-09T14:21:31;0.00;;;0.00;;
2576;SDS011;1298;51.252;6.802;2022-09-09T14:27:03;0.40;;;0.40;;
2576;SDS011;1298;51.252;6.802;2022-09-09T14:32:34;0.70;;;0.70;;
2576;SDS011;1298;51.252;6.802;2022-09-09T14:38:07;4.43;;;1.20;;
2576;SDS011;1298;51.252;6.802;2022-09-09T14:40:53;2.80;;;1.40;;
2576;SDS011;1298;51.252;6.802;2022-09-09T14:43:40;4.37;;;1.30;;
2576;SDS011;1298;51.252;6.802;2022-09-09T14:46:25;2.43;;;1.03;;
2576;SDS011;1298;51.252;6.802;2022-09-09T14:49:11;2.30;;;1.23;;
2576;SDS011;1298;51.252;6.802;2022-09-09T14:51:59;1.30;;;1.20;;
2576;SDS011;1298;51.252;6.802;2022-09-09T14:54:44;1.80;;;1.30;;
2576;SDS011;1298;51.252;6.802;2022-09-09T14:57:30;2.20;;;1.30;;
2576;SDS011;1298;51.252;6.802;2022-09-09T15:00:16;1.50;;;1.00;;
2576;SDS011;1298;51.252;6.802;2022-09-09T15:03:02;1.60;;;1.33;;
2576;SDS011;1298;51.252;6.802;2022-09-09T15:05:47;2.40;;;1.50;;
2576;SDS011;1298;51.252;6.802;2022-09-09T15:08:34;1.63;;;1.20;;
2576;SDS011;1298;51.252;6.802;2022-09-09T15:11:20;1.80;;;1.27;;
2576;SDS011;1298;51.252;6.802;2022-09-09T15:14:08;3.55;;;1.58;;
2576;SDS011;1298;51.252;6.802;2022-09-09T15:16:55;1.77;;;1.67;;
2576;SDS011;1298;51.252;6.802;2022-09-09T15:19:41;1.87;;;1.50;;
2576;SDS011;1298;51.252;6.802;2022-09-09T15:22:27;3.80;;;1.67;;
2576;SDS011;1298;51.252;6.802;2022-09-09T15:25:14;1.93;;;1.57;;
2576;SDS011;1298;51.252;6.802;2022-09-09T15:28:01;2.47;;;1.70;;
2576;SDS011;1298;51.252;6.802;2022-09-09T15:30:47;2.83;;;1.60;;
2576;SDS011;1298;51.252;6.802;2022-09-09T15:33:33;2.30;;;1.90;;
2576;SDS011;1298;51.252;6.802;2022-09-09T15:36:21;4.17;;;1.90;;
2576;SDS011;1298;51.252;6.802;2022-09-09T15:39:08;4.27;;;2.20;;
2576;SDS011;1298;51.252;6.802;2022-09-09T15:41:57;3.50;;;1.70;;
2576;SDS011;1298;51.252;6.802;2022-09-09T15:44:48;2.60;;;1.90;;
2576;SDS011;1298;51.252;6.802;2022-09-09T15:47:35;3.17;;;1.70;;
2576;SDS011;1298;51.252;6.802;2022-09-09T15:50:21;3.10;;;1.90;;
2576;SDS011;1298;51.252;6.802;2022-09-09T15:53:07;4.43;;;1.70;;
2576;SDS011;1298;51.252;6.802;2022-09-09T15:55:54;3.20;;;1.70;;
2576;SDS011;1298;51.252;6.802;2022-09-09T15:58:41;3.30;;;1.97;;
2576;SDS011;1298;51.252;6.802;2022-09-09T16:01:27;2.93;;;1.90;;
2576;SDS011;1298;51.252;6.802;2022-09-09T16:04:13;8.03;;;3.50;;
2576;SDS011;1298;51.252;6.802;2022-09-09T16:07:00;5.50;;;2.80;;
2576;SDS011;1298;51.252;6.802;2022-09-09T16:09:46;7.37;;;3.10;;
2576;SDS011;1298;51.252;6.802;2022-09-09T16:12:34;3.93;;;2.90;;
2576;SDS011;1298;51.252;6.802;2022-09-09T16:15:21;4.67;;;3.27;;
2576;SDS011;1298;51.252;6.802;2022-09-09T16:18:07;5.67;;;3.17;;
2576;SDS011;1298;51.252;6.802;2022-09-09T16:20:53;6.60;;;3.63;;
2576;SDS011;1298;51.252;6.802;2022-09-09T16:23:39;5.70;;;2.87;;
2576;SDS011;1298;51.252;6.802;2022-09-09T16:26:25;4.47;;;2.83;;
2576;SDS011;1298;51.252;6.802;2022-09-09T16:29:11;6.13;;;3.10;;
2576;SDS011;1298;51.252;6.802;2022-09-09T16:31:59;6.80;;;3.40;;
2576;SDS011;1298;51.252;6.802;2022-09-09T16:34:44;5.00;;;2.50;;
2576;SDS011;1298;51.252;6.802;2022-09-09T16:37:30;4.30;;;2.83;;
2576;SDS011;1298;51.252;6.802;2022-09-09T16:40:17;7.63;;;3.10;;
2576;SDS011;1298;51.252;6.802;2022-09-09T16:43:03;5.23;;;3.47;;
2576;SDS011;1298;51.252;6.802;2022-09-09T16:45:49;3.37;;;2.50;;
2576;SDS011;1298;51.252;6.802;2022-09-09T16:48:35;5.50;;;3.20;;
2576;SDS011;1298;51.252;6.802;2022-09-09T16:51:22;6.20;;;2.93;;
2576;SDS011;1298;51.252;6.802;2022-09-09T16:54:09;3.70;;;2.80;;
2576;SDS011;1298;51.252;6.802;2022-09-09T16:56:57;3.93;;;2.37;;
2576;SDS011;1298;51.252;6.802;2022-09-09T16:59:44;6.00;;;2.80;;
2576;SDS011;1298;51.252;6.802;2022-09-09T17:02:29;4.10;;;2.57;;
2576;SDS011;1298;51.252;6.802;2022-09-09T17:05:16;9.33;;;2.43;;
2576;SDS011;1298;51.252;6.802;2022-09-09T17:08:02;8.10;;;2.40;;
2576;SDS011;1298;51.252;6.802;2022-09-09T17:10:49;2.90;;;2.47;;
2576;SDS011;1298;51.252;6.802;2022-09-09T17:13:34;3.47;;;2.40;;
2576;SDS011;1298;51.252;6.802;2022-09-09T17:16:20;4.80;;;3.23;;
2576;SDS011;1298;51.252;6.802;2022-09-09T17:19:08;3.77;;;2.50;;
2576;SDS011;1298;51.252;6.802;2022-09-09T17:21:56;4.70;;;3.40;;
2576;SDS011;1298;51.252;6.802;2022-09-09T17:24:42;3.83;;;3.30;;
2576;SDS011;1298;51.252;6.802;2022-09-09T17:27:27;6.47;;;3.33;;
2576;SDS011;1298;51.252;6.802;2022-09-09T17:30:14;4.87;;;3.27;;
2576;SDS011;1298;51.252;6.802;2022-09-09T17:33:00;4.33;;;3.00;;
2576;SDS011;1298;51.252;6.802;2022-09-09T17:35:46;4.88;;;2.80;;
2576;SDS011;1298;51.252;6.802;2022-09-09T17:38:34;4.80;;;3.73;;
2576;SDS011;1298;51.252;6.802;2022-09-09T17:41:20;4.00;;;3.10;;
2576;SDS011;1298;51.252;6.802;2022-09-09T17:44:06;4.30;;;3.00;;
2576;SDS011;1298;51.252;6.802;2022-09-09T17:46:53;4.70;;;3.87;;
2576;SDS011;1298;51.252;6.802;2022-09-09T17:49:39;7.67;;;4.00;;
2576;SDS011;1298;51.252;6.802;2022-09-09T17:52:25;6.10;;;4.13;;
2576;SDS011;1298;51.252;6.802;2022-09-09T17:55:12;4.23;;;3.83;;
2576;SDS011;1298;51.252;6.802;2022-09-09T17:57:59;6.40;;;4.00;;
2576;SDS011;1298;51.252;6.802;2022-09-09T18:00:44;4.27;;;3.70;;
2576;SDS011;1298;51.252;6.802;2022-09-09T18:03:30;6.20;;;4.50;;
2576;SDS011;1298;51.252;6.802;2022-09-09T18:06:18;5.60;;;5.00;;
2576;SDS011;1298;51.252;6.802;2022-09-09T18:09:06;8.60;;;4.53;;
2576;SDS011;1298;51.252;6.802;2022-09-09T18:11:55;6.43;;;4.20;;
2576;SDS011;1298;51.252;6.802;2022-09-09T18:14:41;5.50;;;3.53;;
2576;SDS011;1298;51.252;6.802;2022-09-09T18:17:26;6.13;;;3.93;;
2576;SDS011;1298;51.252;6.802;2022-09-09T18:20:12;6.33;;;4.20;;
2576;SDS011;1298;51.252;6.802;2022-09-09T18:22:59;5.50;;;3.37;;
2576;SDS011;1298;51.252;6.802;2022-09-09T18:25:45;7.13;;;3.80;;
2576;SDS011;1298;51.252;6.802;2022-09-09T18:28:31;3.40;;;3.07;;
2576;SDS011;1298;51.252;6.802;2022-09-09T18:31:18;5.80;;;3.50;;
2576;SDS011;1298;51.252;6.802;2022-09-09T18:34:06;6.50;;;3.60;;
2576;SDS011;1298;51.252;6.802;2022-09-09T18:36:53;6.73;;;3.20;;
2576;SDS011;1298;51.252;6.802;2022-09-09T18:39:39;5.40;;;3.60;;
2576;SDS011;1298;51.252;6.802;2022-09-09T18:42:24;6.40;;;3.77;;
2576;SDS011;1298;51.252;6.802;2022-09-09T18:45:11;4.80;;;4.07;;
2576;SDS011;1298;51.252;6.802;2022-09-09T18:47:57;4.37;;;3.23;;
2576;SDS011;1298;51.252;6.802;2022-09-09T18:50:43;4.50;;;3.60;;
2576;SDS011;1298;51.252;6.802;2022-09-09T18:53:28;8.10;;;7.07;;
2576;SDS011;1298;51.252;6.802;2022-09-09T18:56:14;6.23;;;4.50;;
2576;SDS011;1298;51.252;6.802;2022-09-09T18:59:00;4.83;;;3.80;;
2576;SDS011;1298;51.252;6.802;2022-09-09T19:01:48;7.23;;;4.10;;
2576;SDS011;1298;51.252;6.802;2022-09-09T19:04:35;12.67;;;5.13;;
2576;SDS011;1298;51.252;6.802;2022-09-09T19:07:21;5.17;;;3.77;;
2576;SDS011;1298;51.252;6.802;2022-09-09T19:10:07;7.20;;;4.10;;
2576;SDS011;1298;51.252;6.802;2022-09-09T19:12:52;8.70;;;7.00;;
2576;SDS011;1298;51.252;6.802;2022-09-09T19:15:38;6.63;;;3.80;;
2576;SDS011;1298;51.252;6.802;2022-09-09T19:18:25;6.50;;;3.80;;
2576;SDS011;1298;51.252;6.802;2022-09-09T19:21:10;5.40;;;4.80;;
2576;SDS011;1298;51.252;6.802;2022-09-09T19:23:58;5.47;;;3.90;;
2576;SDS011;1298;51.252;6.802;2022-09-09T19:26:45;5.67;;;3.53;;
2576;SDS011;1298;51.252;6.802;2022-09-09T19:29:32;7.53;;;4.20;;
2576;SDS011;1298;51.252;6.802;2022-09-09T19:32:21;5.70;;;3.67;;
2576;SDS011;1298;51.252;6.802;2022-09-09T19:35:09;6.70;;;4.20;;
2576;SDS011;1298;51.252;6.802;2022-09-09T19:37:56;9.80;;;4.30;;
2576;SDS011;1298;51.252;6.802;2022-09-09T19:40:42;5.63;;;4.07;;
2576;SDS011;1298;51.252;6.802;2022-09-09T19:43:28;4.97;;;3.53;;
2576;SDS011;1298;51.252;6.802;2022-09-09T19:46:13;4.67;;;4.27;;
2576;SDS011;1298;51.252;6.802;2022-09-09T19:49:01;6.30;;;3.40;;
2576;SDS011;1298;51.252;6.802;2022-09-09T19:51:49;7.17;;;3.57;;
2576;SDS011;1298;51.252;6.802;2022-09-09T19:54:35;10.97;;;3.73;;
2576;SDS011;1298;51.252;6.802;2022-09-09T19:57:20;4.83;;;3.33;;
2576;SDS011;1298;51.252;6.802;2022-09-09T20:00:06;8.40;;;3.80;;
2576;SDS011;1298;51.252;6.802;2022-09-09T20:02:53;6.87;;;3.77;;
2576;SDS011;1298;51.252;6.802;2022-09-09T20:05:39;6.47;;;3.37;;
2576;SDS011;1298;51.252;6.802;2022-09-09T20:08:26;8.10;;;4.73;;
2576;SDS011;1298;51.252;6.802;2022-09-09T20:11:11;6.27;;;3.50;;
2576;SDS011;1298;51.252;6.802;2022-09-09T20:13:57;6.97;;;5.53;;
2576;SDS011;1298;51.252;6.802;2022-09-09T20:16:43;5.27;;;3.17;;
2576;SDS011;1298;51.252;6.802;2022-09-09T20:19:29;13.83;;;9.13;;
2576;SDS011;1298;51.252;6.802;2022-09-09T20:22:15;4.00;;;3.23;;
2576;SDS011;1298;51.252;6.802;2022-09-09T20:25:01;6.80;;;3.30;;
2576;SDS011;1298;51.252;6.802;2022-09-09T20:27:47;5.43;;;3.27;;
2576;SDS011;1298;51.252;6.802;2022-09-09T20:30:33;7.57;;;4.83;;
2576;SDS011;1298;51.252;6.802;2022-09-09T20:33:20;8.77;;;4.07;;
2576;SDS011;1298;51.252;6.802;2022-09-09T20:36:10;3.73;;;3.20;;
2576;SDS011;1298;51.252;6.802;2022-09-09T20:38:57;4.70;;;2.50;;
2576;SDS011;1298;51.252;6.802;2022-09-09T20:41:46;4.40;;;3.23;;
2576;SDS011;1298;51.252;6.802;2022-09-09T20:44:32;5.80;;;2.70;;
2576;SDS011;1298;51.252;6.802;2022-09-09T20:47:18;5.60;;;3.03;;
2576;SDS011;1298;51.252;6.802;2022-09-09T20:50:04;4.37;;;3.00;;
2576;SDS011;1298;51.252;6.802;2022-09-09T20:52:50;4.10;;;2.87;;
2576;SDS011;1298;51.252;6.802;2022-09-09T20:55:36;5.80;;;2.97;;
2576;SDS011;1298;51.252;6.802;2022-09-09T20:58:22;5.00;;;3.37;;
2576;SDS011;1298;51.252;6.802;2022-09-09T21:01:10;4.97;;;4.00;;
2576;SDS011;1298;51.252;6.802;2022-09-09T21:03:59;5.67;;;2.87;;
2576;SDS011;1298;51.252;6.802;2022-09-09T21:06:45;4.10;;;3.20;;
2576;SDS011;1298;51.252;6.802;2022-09-09T21:09:32;6.10;;;4.43;;
2576;SDS011;1298;51.252;6.802;2022-09-09T21:12:17;9.43;;;4.20;;
2576;SDS011;1298;51.252;6.802;2022-09-09T21:15:05;8.43;;;3.60;;
2576;SDS011;1298;51.252;6.802;2022-09-09T21:17:51;5.00;;;2.50;;
2576;SDS011;1298;51.252;6.802;2022-09-09T21:20:37;3.40;;;2.80;;
2576;SDS011;1298;51.252;6.802;2022-09-09T21:23:26;8.33;;;2.90;;
2576;SDS011;1298;51.252;6.802;2022-09-09T21:26:11;5.18;;;3.03;;
2576;SDS011;1298;51.252;6.802;2022-09-09T21:28:57;6.43;;;2.90;;
2576;SDS011;1298;51.252;6.802;2022-09-09T21:31:44;6.33;;;4.43;;
2576;SDS011;1298;51.252;6.802;2022-09-09T21:34:29;8.23;;;3.03;;
2576;SDS011;1298;51.252;6.802;2022-09-09T21:37:17;6.87;;;2.83;;
2576;SDS011;1298;51.252;6.802;2022-09-09T21:40:02;4.82;;;2.90;;
2576;SDS011;1298;51.252;6.802;2022-09-09T21:42:48;7.00;;;4.53;;
2576;SDS011;1298;51.252;6.802;2022-09-09T21:45:34;4.50;;;3.30;;
2576;SDS011;1298;51.252;6.802;2022-09-09T21:48:22;5.17;;;3.63;;
2576;SDS011;1298;51.252;6.802;2022-09-09T21:51:11;3.80;;;2.90;;
2576;SDS011;1298;51.252;6.802;2022-09-09T21:53:58;5.43;;;3.50;;
2576;SDS011;1298;51.252;6.802;2022-09-09T21:56:44;6.97;;;3.70;;
2576;SDS011;1298;51.252;6.802;2022-09-09T21:59:29;6.13;;;3.80;;
2576;SDS011;1298;51.252;6.802;2022-09-09T22:02:16;5.63;;;3.17;;
2576;SDS011;1298;51.252;6.802;2022-09-09T22:05:07;5.60;;;3.30;;
2576;SDS011;1298;51.252;6.802;2022-09-09T22:07:53;6.07;;;2.85;;
2576;SDS011;1298;51.252;6.802;2022-09-09T22:10:39;4.50;;;3.40;;
2576;SDS011;1298;51.252;6.802;2022-09-09T22:13:28;4.00;;;2.80;;
2576;SDS011;1298;51.252;6.802;2022-09-09T22:16:14;8.13;;;4.00;;
2576;SDS011;1298;51.252;6.802;2022-09-09T22:19:01;3.90;;;3.30;;
2576;SDS011;1298;51.252;6.802;2022-09-09T22:21:48;4.60;;;3.53;;
2576;SDS011;1298;51.252;6.802;2022-09-09T22:24:34;5.93;;;3.60;;
2576;SDS011;1298;51.252;6.802;2022-09-09T22:27:21;4.60;;;3.87;;
2576;SDS011;1298;51.252;6.802;2022-09-09T22:30:07;5.70;;;3.60;;
2576;SDS011;1298;51.252;6.802;2022-09-09T22:32:53;6.00;;;3.50;;
2576;SDS011;1298;51.252;6.802;2022-09-09T22:35:39;5.83;;;3.47;;
2576;SDS011;1298;51.252;6.802;2022-09-09T22:38:27;10.88;;;3.80;;
2576;SDS011;1298;51.252;6.802;2022-09-09T22:41:12;4.60;;;3.03;;
2576;SDS011;1298;51.252;6.802;2022-09-09T22:43:58;3.33;;;3.03;;
2576;SDS011;1298;51.252;6.802;2022-09-09T22:46:43;5.50;;;3.17;;
2576;SDS011;1298;51.252;6.802;2022-09-09T22:49:30;4.03;;;2.80;;
2576;SDS011;1298;51.252;6.802;2022-09-09T22:52:15;6.03;;;3.67;;
2576;SDS011;1298;51.252;6.802;2022-09-09T22:55:02;5.10;;;3.10;;
2576;SDS011;1298;51.252;6.802;2022-09-09T22:57:48;5.83;;;3.20;;
2576;SDS011;1298;51.252;6.802;2022-09-09T23:00:33;7.60;;;3.60;;
2576;SDS011;1298;51.252;6.802;2022-09-09T23:03:19;5.23;;;3.10;;
2576;SDS011;1298;51.252;6.802;2022-09-09T23:06:04;7.60;;;4.17;;
2576;SDS011;1298;51.252;6.802;2022-09-09T23:08:51;7.00;;;3.60;;
2576;SDS011;1298;51.252;6.802;2022-09-09T23:11:39;7.72;;;3.60;;
2576;SDS011;1298;51.252;6.802;2022-09-09T23:14:25;3.60;;;2.60;;
2576;SDS011;1298;51.252;6.802;2022-09-09T23:17:10;6.67;;;3.17;;
2576;SDS011;1298;51.252;6.802;2022-09-09T23:19:57;4.47;;;3.53;;
2576;SDS011;1298;51.252;6.802;2022-09-09T23:22:42;3.53;;;2.80;;
2576;SDS011;1298;51.252;6.802;2022-09-09T23:25:28;4.70;;;2.87;;
2576;SDS011;1298;51.252;6.802;2022-09-09T23:28:15;3.30;;;2.40;;
2576;SDS011;1298;51.252;6.802;2022-09-09T23:31:01;3.50;;;2.80;;
2576;SDS011;1298;51.252;6.802;2022-09-09T23:33:47;3.33;;;2.90;;
2576;SDS011;1298;51.252;6.802;2022-09-09T23:36:33;3.65;;;2.70;;
2576;SDS011;1298;51.252;6.802;2022-09-09T23:39:18;7.20;;;2.43;;
2576;SDS011;1298;51.252;6.802;2022-09-09T23:42:06;3.63;;;2.50;;
2576;SDS011;1298;51.252;6.802;2022-09-09T23:44:53;3.37;;;2.27;;
2576;SDS011;1298;51.252;6.802;2022-09-09T23:47:40;2.30;;;2.10;;
2576;SDS011;1298;51.252;6.802;2022-09-09T23:50:25;3.97;;;2.57;;
2576;SDS011;1298;51.252;6.802;2022-09-09T23:53:11;4.43;;;2.50;;
2576;SDS011;1298;51.252;6.802;2022-09-09T23:55:58;3.70;;;1.80;;
2576;SDS011;1298;51.252;6.802;2022-09-09T23:58:43;3.28;;;2.55;;
